sensor_id;sensor_type;location;lat;lon;timestamp;pressure;altitude;pressure_sealevel;temperature;humidity
41078;BME280;26823;42.662;23.352;2022-07-04T00:00:05;95036.56;;;21.92;56.50
41078;BME280;26823;42.662;23.352;2022-07-04T00:02:31;95035.41;;;21.81;56.94
41078;BME280;26823;42.662;23.352;2022-07-04T00:04:56;95035.78;;;21.79;56.82
41078;BME280;26823;42.662;23.352;2022-07-04T00:07:22;95034.75;;;21.72;56.86
41078;BME280;26823;42.662;23.352;2022-07-04T00:09:47;95028.56;;;21.62;56.96
41078;BME280;26823;42.662;23.352;2022-07-04T00:12:13;95033.59;;;21.60;56.82
41078;BME280;26823;42.662;23.352;2022-07-04T00:14:38;95022.31;;;21.41;56.97
41078;BME280;26823;42.662;23.352;2022-07-04T00:17:04;95045.16;;;21.54;56.64
41078;BME280;26823;42.662;23.352;2022-07-04T00:19:30;95038.41;;;21.51;57.25
41078;BME280;26823;42.662;23.352;2022-07-04T00:21:55;95027.25;;;21.47;56.96
41078;BME280;26823;42.662;23.352;2022-07-04T00:24:21;95032.41;;;21.37;57.64
41078;BME280;26823;42.662;23.352;2022-07-04T00:26:46;95022.66;;;21.14;57.17
41078;BME280;26823;42.662;23.352;2022-07-04T00:29:12;95032.25;;;21.08;56.98
41078;BME280;26823;42.662;23.352;2022-07-04T00:31:37;95024.91;;;21.00;57.56
41078;BME280;26823;42.662;23.352;2022-07-04T00:34:02;94989.78;;;20.72;57.47
41078;BME280;26823;42.662;23.352;2022-07-04T00:36:28;95019.63;;;20.95;57.64
41078;BME280;26823;42.662;23.352;2022-07-04T00:38:53;95027.06;;;20.94;56.93
41078;BME280;26823;42.662;23.352;2022-07-04T00:41:19;94994.41;;;20.59;57.28
41078;BME280;26823;42.662;23.352;2022-07-04T00:43:59;95007.28;;;20.67;57.41
41078;BME280;26823;42.662;23.352;2022-07-04T00:46:25;95013.44;;;20.64;57.36
41078;BME280;26823;42.662;23.352;2022-07-04T00:48:50;95024.50;;;20.77;57.35
41078;BME280;26823;42.662;23.352;2022-07-04T00:51:16;95017.53;;;20.79;57.65
41078;BME280;26823;42.662;23.352;2022-07-04T00:53:42;95002.78;;;20.84;57.39
41078;BME280;26823;42.662;23.352;2022-07-04T00:56:08;95015.16;;;20.90;57.17
41078;BME280;26823;42.662;23.352;2022-07-04T00:58:33;95024.66;;;20.93;57.24
41078;BME280;26823;42.662;23.352;2022-07-04T01:00:59;95000.81;;;20.84;56.75
41078;BME280;26823;42.662;23.352;2022-07-04T01:03:25;95003.56;;;20.84;56.68
41078;BME280;26823;42.662;23.352;2022-07-04T01:05:50;95008.41;;;20.88;56.85
41078;BME280;26823;42.662;23.352;2022-07-04T01:08:16;94993.94;;;20.78;57.21
41078;BME280;26823;42.662;23.352;2022-07-04T01:10:42;95011.22;;;20.79;57.54
41078;BME280;26823;42.662;23.352;2022-07-04T01:13:07;95007.31;;;20.80;57.29
41078;BME280;26823;42.662;23.352;2022-07-04T01:15:33;94999.25;;;20.62;57.39
41078;BME280;26823;42.662;23.352;2022-07-04T01:17:58;95003.38;;;20.68;57.53
41078;BME280;26823;42.662;23.352;2022-07-04T01:20:24;95001.25;;;20.74;56.85
41078;BME280;26823;42.662;23.352;2022-07-04T01:22:49;94996.28;;;20.67;57.02
41078;BME280;26823;42.662;23.352;2022-07-04T01:25:15;95013.22;;;20.69;56.41
41078;BME280;26823;42.662;23.352;2022-07-04T01:27:40;95007.28;;;20.67;56.35
41078;BME280;26823;42.662;23.352;2022-07-04T01:30:07;95014.19;;;20.74;55.99
41078;BME280;26823;42.662;23.352;2022-07-04T01:32:32;95015.56;;;20.80;56.15
41078;BME280;26823;42.662;23.352;2022-07-04T01:34:58;95006.56;;;20.92;55.56
41078;BME280;26823;42.662;23.352;2022-07-04T01:37:23;95002.06;;;20.87;55.39
41078;BME280;26823;42.662;23.352;2022-07-04T01:39:49;95009.66;;;20.90;55.34
41078;BME280;26823;42.662;23.352;2022-07-04T01:42:14;95012.63;;;20.85;53.57
41078;BME280;26823;42.662;23.352;2022-07-04T01:44:39;95010.75;;;20.77;54.45
41078;BME280;26823;42.662;23.352;2022-07-04T01:47:05;94993.41;;;20.64;53.86
41078;BME280;26823;42.662;23.352;2022-07-04T01:49:30;95005.47;;;20.72;53.80
41078;BME280;26823;42.662;23.352;2022-07-04T01:51:56;95008.41;;;20.88;56.21
41078;BME280;26823;42.662;23.352;2022-07-04T01:54:21;95017.31;;;20.84;52.44
41078;BME280;26823;42.662;23.352;2022-07-04T01:56:47;95012.03;;;20.58;52.47
41078;BME280;26823;42.662;23.352;2022-07-04T01:59:12;95020.00;;;20.72;52.76
41078;BME280;26823;42.662;23.352;2022-07-04T02:01:38;94999.91;;;20.59;52.76
41078;BME280;26823;42.662;23.352;2022-07-04T02:04:05;95011.59;;;20.68;52.04
41078;BME280;26823;42.662;23.352;2022-07-04T02:06:31;95010.63;;;20.52;52.27
41078;BME280;26823;42.662;23.352;2022-07-04T02:08:57;95013.50;;;20.56;52.55
41078;BME280;26823;42.662;23.352;2022-07-04T02:11:41;95017.41;;;20.54;52.79
41078;BME280;26823;42.662;23.352;2022-07-04T02:14:25;95020.97;;;20.55;52.44
41078;BME280;26823;42.662;23.352;2022-07-04T02:16:51;95009.38;;;20.49;52.73
41078;BME280;26823;42.662;23.352;2022-07-04T02:19:17;95011.88;;;20.42;53.10
41078;BME280;26823;42.662;23.352;2022-07-04T02:21:43;95015.88;;;20.45;53.04
41078;BME280;26823;42.662;23.352;2022-07-04T02:24:08;95022.84;;;20.42;53.31
41078;BME280;26823;42.662;23.352;2022-07-04T02:26:34;95001.88;;;20.37;53.29
41078;BME280;26823;42.662;23.352;2022-07-04T02:28:59;95018.78;;;20.27;55.64
41078;BME280;26823;42.662;23.352;2022-07-04T02:31:25;95032.28;;;20.11;56.41
41078;BME280;26823;42.662;23.352;2022-07-04T02:33:51;95028.91;;;20.14;53.93
41078;BME280;26823;42.662;23.352;2022-07-04T02:36:16;95019.31;;;19.99;54.49
41078;BME280;26823;42.662;23.352;2022-07-04T02:38:42;95030.44;;;20.03;54.34
41078;BME280;26823;42.662;23.352;2022-07-04T02:41:07;95019.97;;;19.96;54.62
41078;BME280;26823;42.662;23.352;2022-07-04T02:43:32;95007.06;;;19.97;54.71
41078;BME280;26823;42.662;23.352;2022-07-04T02:45:58;95027.66;;;20.24;55.35
41078;BME280;26823;42.662;23.352;2022-07-04T02:48:23;95026.41;;;20.21;54.70
41078;BME280;26823;42.662;23.352;2022-07-04T02:50:49;95037.78;;;20.11;54.51
41078;BME280;26823;42.662;23.352;2022-07-04T02:53:14;95040.34;;;20.16;54.10
41078;BME280;26823;42.662;23.352;2022-07-04T02:55:39;95032.28;;;20.11;54.95
41078;BME280;26823;42.662;23.352;2022-07-04T02:58:05;95021.84;;;20.04;53.08
41078;BME280;26823;42.662;23.352;2022-07-04T03:00:30;95042.06;;;20.00;53.54
41078;BME280;26823;42.662;23.352;2022-07-04T03:02:56;95039.88;;;20.14;55.20
41078;BME280;26823;42.662;23.352;2022-07-04T03:05:21;95047.84;;;20.07;55.87
41078;BME280;26823;42.662;23.352;2022-07-04T03:07:47;95032.50;;;20.06;54.54
41078;BME280;26823;42.662;23.352;2022-07-04T03:10:13;95049.91;;;19.89;56.64
41078;BME280;26823;42.662;23.352;2022-07-04T03:12:38;95060.97;;;20.01;56.04
41078;BME280;26823;42.662;23.352;2022-07-04T03:15:04;95053.59;;;20.14;55.44
41078;BME280;26823;42.662;23.352;2022-07-04T03:17:30;95054.69;;;20.22;54.88
41078;BME280;26823;42.662;23.352;2022-07-04T03:19:56;95041.34;;;20.33;54.34
41078;BME280;26823;42.662;23.352;2022-07-04T03:22:22;95065.16;;;20.71;54.61
41078;BME280;26823;42.662;23.352;2022-07-04T03:24:47;95045.78;;;20.80;54.43
41078;BME280;26823;42.662;23.352;2022-07-04T03:27:12;95039.16;;;21.27;53.10
41078;BME280;26823;42.662;23.352;2022-07-04T03:29:38;95054.75;;;21.35;52.88
41078;BME280;26823;42.662;23.352;2022-07-04T03:32:04;95038.78;;;21.04;54.50
41078;BME280;26823;42.662;23.352;2022-07-04T03:34:29;95047.97;;;20.74;52.64
41078;BME280;26823;42.662;23.352;2022-07-04T03:36:55;95056.47;;;20.60;54.38
41078;BME280;26823;42.662;23.352;2022-07-04T03:39:20;95048.56;;;20.59;55.49
41078;BME280;26823;42.662;23.352;2022-07-04T03:41:47;95058.94;;;20.53;55.72
41078;BME280;26823;42.662;23.352;2022-07-04T03:44:12;95058.09;;;20.40;55.98
41078;BME280;26823;42.662;23.352;2022-07-04T03:46:38;95043.28;;;20.32;56.98
41078;BME280;26823;42.662;23.352;2022-07-04T03:49:03;95048.53;;;20.04;57.79
41078;BME280;26823;42.662;23.352;2022-07-04T03:51:29;95052.50;;;19.85;58.05
41078;BME280;26823;42.662;23.352;2022-07-04T03:53:54;95022.81;;;19.79;58.20
41078;BME280;26823;42.662;23.352;2022-07-04T03:56:20;95008.31;;;19.48;58.91
41078;BME280;26823;42.662;23.352;2022-07-04T03:58:45;95043.69;;;20.01;58.90
41078;BME280;26823;42.662;23.352;2022-07-04T04:01:17;95034.44;;;20.06;58.93
41078;BME280;26823;42.662;23.352;2022-07-04T04:03:44;95041.13;;;19.96;60.70
41078;BME280;26823;42.662;23.352;2022-07-04T04:06:28;95022.81;;;19.49;62.57
41078;BME280;26823;42.662;23.352;2022-07-04T04:08:54;94999.03;;;19.32;62.41
41078;BME280;26823;42.662;23.352;2022-07-04T04:11:19;95050.56;;;19.77;62.32
41078;BME280;26823;42.662;23.352;2022-07-04T04:13:45;95050.50;;;19.95;62.11
41078;BME280;26823;42.662;23.352;2022-07-04T04:16:11;95041.75;;;20.01;62.43
41078;BME280;26823;42.662;23.352;2022-07-04T04:18:36;95040.28;;;20.25;61.70
41078;BME280;26823;42.662;23.352;2022-07-04T04:21:03;95050.25;;;20.30;62.24
41078;BME280;26823;42.662;23.352;2022-07-04T04:23:28;95052.53;;;20.49;62.29
41078;BME280;26823;42.662;23.352;2022-07-04T04:25:54;95047.94;;;20.95;60.46
41078;BME280;26823;42.662;23.352;2022-07-04T04:28:19;95029.41;;;20.71;61.10
41078;BME280;26823;42.662;23.352;2022-07-04T04:30:44;95064.13;;;21.22;59.96
41078;BME280;26823;42.662;23.352;2022-07-04T04:33:10;95030.25;;;20.96;59.92
41078;BME280;26823;42.662;23.352;2022-07-04T04:35:35;95056.00;;;21.25;58.85
41078;BME280;26823;42.662;23.352;2022-07-04T04:38:01;95063.94;;;20.93;60.63
41078;BME280;26823;42.662;23.352;2022-07-04T04:40:26;95060.94;;;20.86;59.45
41078;BME280;26823;42.662;23.352;2022-07-04T04:42:53;95058.78;;;20.92;56.46
41078;BME280;26823;42.662;23.352;2022-07-04T04:45:18;95069.94;;;21.08;56.03
41078;BME280;26823;42.662;23.352;2022-07-04T04:47:44;95063.47;;;21.25;53.97
41078;BME280;26823;42.662;23.352;2022-07-04T04:50:10;95063.88;;;21.60;53.12
41078;BME280;26823;42.662;23.352;2022-07-04T04:52:41;95069.81;;;21.75;53.39
41078;BME280;26823;42.662;23.352;2022-07-04T04:55:07;95049.06;;;21.53;51.00
41078;BME280;26823;42.662;23.352;2022-07-04T04:57:33;95072.59;;;21.62;52.25
41078;BME280;26823;42.662;23.352;2022-07-04T04:59:58;95069.50;;;21.64;52.92
41078;BME280;26823;42.662;23.352;2022-07-04T05:02:24;95067.03;;;21.50;51.77
41078;BME280;26823;42.662;23.352;2022-07-04T05:04:49;95072.47;;;21.59;52.65
41078;BME280;26823;42.662;23.352;2022-07-04T05:07:15;95070.94;;;21.49;51.97
41078;BME280;26823;42.662;23.352;2022-07-04T05:09:41;95065.00;;;21.59;53.46
41078;BME280;26823;42.662;23.352;2022-07-04T05:12:06;95065.31;;;21.45;51.34
41078;BME280;26823;42.662;23.352;2022-07-04T05:14:32;95054.06;;;21.38;50.90
41078;BME280;26823;42.662;23.352;2022-07-04T05:16:57;95068.97;;;21.49;52.01
41078;BME280;26823;42.662;23.352;2022-07-04T05:19:23;95044.22;;;21.49;50.36
41078;BME280;26823;42.662;23.352;2022-07-04T05:21:48;95044.72;;;21.64;50.46
41078;BME280;26823;42.662;23.352;2022-07-04T05:24:14;95039.91;;;21.61;51.20
41078;BME280;26823;42.662;23.352;2022-07-04T05:26:39;95055.38;;;21.78;50.64
41078;BME280;26823;42.662;23.352;2022-07-04T05:29:05;95056.97;;;21.91;51.69
41078;BME280;26823;42.662;23.352;2022-07-04T05:31:31;95051.03;;;22.02;51.89
41078;BME280;26823;42.662;23.352;2022-07-04T05:33:57;95061.50;;;22.24;50.70
41078;BME280;26823;42.662;23.352;2022-07-04T05:36:23;95048.56;;;22.12;51.77
41078;BME280;26823;42.662;23.352;2022-07-04T05:38:49;95066.47;;;22.31;51.20
41078;BME280;26823;42.662;23.352;2022-07-04T05:41:14;95060.22;;;22.34;50.64
41078;BME280;26823;42.662;23.352;2022-07-04T05:43:40;95045.22;;;22.31;49.24
41078;BME280;26823;42.662;23.352;2022-07-04T05:46:05;95062.84;;;22.55;50.05
41078;BME280;26823;42.662;23.352;2022-07-04T05:48:32;95071.38;;;22.50;50.21
41078;BME280;26823;42.662;23.352;2022-07-04T05:50:57;95060.63;;;22.61;50.50
41078;BME280;26823;42.662;23.352;2022-07-04T05:53:22;95063.31;;;22.86;50.82
41078;BME280;26823;42.662;23.352;2022-07-04T05:55:48;95065.19;;;22.82;49.00
41078;BME280;26823;42.662;23.352;2022-07-04T05:58:13;95063.16;;;22.94;48.82
41078;BME280;26823;42.662;23.352;2022-07-04T06:00:39;95056.81;;;22.94;48.95
41078;BME280;26823;42.662;23.352;2022-07-04T06:03:07;95071.03;;;22.80;50.13
41078;BME280;26823;42.662;23.352;2022-07-04T06:05:32;95059.84;;;22.89;47.94
41078;BME280;26823;42.662;23.352;2022-07-04T06:07:58;95079.56;;;23.03;45.89
41078;BME280;26823;42.662;23.352;2022-07-04T06:10:24;95077.75;;;22.95;47.78
41078;BME280;26823;42.662;23.352;2022-07-04T06:12:49;95072.03;;;23.16;47.39
41078;BME280;26823;42.662;23.352;2022-07-04T06:15:15;95070.19;;;23.08;48.59
41078;BME280;26823;42.662;23.352;2022-07-04T06:17:41;95068.00;;;23.13;46.16
41078;BME280;26823;42.662;23.352;2022-07-04T06:20:07;95073.19;;;23.15;45.28
41078;BME280;26823;42.662;23.352;2022-07-04T06:22:45;95071.63;;;23.30;45.98
41078;BME280;26823;42.662;23.352;2022-07-04T06:25:13;95059.84;;;23.33;45.97
41078;BME280;26823;42.662;23.352;2022-07-04T06:27:39;95028.09;;;23.23;46.04
41078;BME280;26823;42.662;23.352;2022-07-04T06:30:05;95064.34;;;23.54;48.82
41078;BME280;26823;42.662;23.352;2022-07-04T06:32:50;95059.84;;;23.81;48.43
41078;BME280;26823;42.662;23.352;2022-07-04T06:35:27;95067.59;;;24.07;45.18
41078;BME280;26823;42.662;23.352;2022-07-04T06:38:17;95059.00;;;23.93;44.11
41078;BME280;26823;42.662;23.352;2022-07-04T06:40:49;95061.03;;;23.96;45.05
41078;BME280;26823;42.662;23.352;2022-07-04T06:43:24;95072.97;;;24.00;45.03
41078;BME280;26823;42.662;23.352;2022-07-04T06:45:50;95067.88;;;24.02;44.38
41078;BME280;26823;42.662;23.352;2022-07-04T06:48:16;95058.16;;;24.08;44.54
41078;BME280;26823;42.662;23.352;2022-07-04T06:50:42;95052.44;;;24.17;44.02
41078;BME280;26823;42.662;23.352;2022-07-04T06:53:08;95031.38;;;23.93;45.15
41078;BME280;26823;42.662;23.352;2022-07-04T06:55:35;95038.19;;;24.15;45.71
41078;BME280;26823;42.662;23.352;2022-07-04T06:58:01;95031.50;;;24.36;44.41
41078;BME280;26823;42.662;23.352;2022-07-04T07:00:37;95055.56;;;24.71;43.72
41078;BME280;26823;42.662;23.352;2022-07-04T07:03:04;95054.41;;;24.72;43.45
41078;BME280;26823;42.662;23.352;2022-07-04T07:05:30;95035.00;;;24.52;42.98
41078;BME280;26823;42.662;23.352;2022-07-04T07:07:56;95042.25;;;24.21;43.32
41078;BME280;26823;42.662;23.352;2022-07-04T07:10:21;95041.28;;;24.30;44.13
41078;BME280;26823;42.662;23.352;2022-07-04T07:12:47;95042.16;;;24.53;45.37
41078;BME280;26823;42.662;23.352;2022-07-04T07:15:13;95020.97;;;24.61;45.00
41078;BME280;26823;42.662;23.352;2022-07-04T07:17:40;94939.03;;;24.30;44.37
41078;BME280;26823;42.662;23.352;2022-07-04T07:20:09;95011.81;;;24.96;44.03
41078;BME280;26823;42.662;23.352;2022-07-04T07:22:35;94985.47;;;24.83;44.38
41078;BME280;26823;42.662;23.352;2022-07-04T07:25:00;95010.78;;;25.04;44.14
41078;BME280;26823;42.662;23.352;2022-07-04T07:27:26;95029.00;;;25.29;44.21
41078;BME280;26823;42.662;23.352;2022-07-04T07:29:53;95021.78;;;25.44;44.20
41078;BME280;26823;42.662;23.352;2022-07-04T07:32:18;95026.25;;;25.52;42.83
41078;BME280;26823;42.662;23.352;2022-07-04T07:34:43;95016.72;;;25.49;43.18
41078;BME280;26823;42.662;23.352;2022-07-04T07:37:12;95032.03;;;25.66;41.71
41078;BME280;26823;42.662;23.352;2022-07-04T07:39:37;95026.84;;;25.65;42.66
41078;BME280;26823;42.662;23.352;2022-07-04T07:42:03;95022.81;;;25.59;42.35
41078;BME280;26823;42.662;23.352;2022-07-04T07:44:28;95026.28;;;25.79;42.41
41078;BME280;26823;42.662;23.352;2022-07-04T07:46:59;95022.16;;;25.92;42.84
41078;BME280;26823;42.662;23.352;2022-07-04T07:49:24;95017.69;;;26.11;42.83
41078;BME280;26823;42.662;23.352;2022-07-04T07:51:50;95012.13;;;26.07;42.49
41078;BME280;26823;42.662;23.352;2022-07-04T07:54:15;95013.97;;;26.26;42.33
41078;BME280;26823;42.662;23.352;2022-07-04T07:56:42;95020.19;;;26.50;41.57
41078;BME280;26823;42.662;23.352;2022-07-04T07:59:11;94995.56;;;26.14;41.50
41078;BME280;26823;42.662;23.352;2022-07-04T08:01:39;95016.03;;;26.33;41.13
41078;BME280;26823;42.662;23.352;2022-07-04T08:04:04;95010.53;;;26.36;42.42
41078;BME280;26823;42.662;23.352;2022-07-04T08:06:49;95004.41;;;26.54;41.31
41078;BME280;26823;42.662;23.352;2022-07-04T08:09:18;95015.56;;;26.61;41.83
41078;BME280;26823;42.662;23.352;2022-07-04T08:11:43;95007.63;;;26.60;40.71
41078;BME280;26823;42.662;23.352;2022-07-04T08:14:09;95008.34;;;26.53;40.56
41078;BME280;26823;42.662;23.352;2022-07-04T08:16:34;95006.13;;;26.66;40.97
41078;BME280;26823;42.662;23.352;2022-07-04T08:19:00;95017.69;;;26.72;41.88
41078;BME280;26823;42.662;23.352;2022-07-04T08:21:26;95003.63;;;26.88;41.14
41078;BME280;26823;42.662;23.352;2022-07-04T08:23:52;95018.00;;;26.97;41.88
41078;BME280;26823;42.662;23.352;2022-07-04T08:26:18;95012.63;;;26.77;40.75
41078;BME280;26823;42.662;23.352;2022-07-04T08:28:43;95003.59;;;26.84;41.55
41078;BME280;26823;42.662;23.352;2022-07-04T08:31:09;95005.63;;;26.87;40.50
41078;BME280;26823;42.662;23.352;2022-07-04T08:33:34;95010.63;;;27.12;41.33
41078;BME280;26823;42.662;23.352;2022-07-04T08:36:00;95009.59;;;27.27;40.80
41078;BME280;26823;42.662;23.352;2022-07-04T08:38:26;94980.88;;;27.09;40.76
41078;BME280;26823;42.662;23.352;2022-07-04T08:40:55;95010.53;;;27.42;41.50
41078;BME280;26823;42.662;23.352;2022-07-04T08:43:23;94994.31;;;27.44;40.58
41078;BME280;26823;42.662;23.352;2022-07-04T08:45:52;95007.41;;;27.47;41.54
41078;BME280;26823;42.662;23.352;2022-07-04T08:48:24;95005.69;;;27.77;41.48
41078;BME280;26823;42.662;23.352;2022-07-04T08:50:57;94989.63;;;27.56;42.77
41078;BME280;26823;42.662;23.352;2022-07-04T08:53:30;95001.69;;;27.74;40.91
41078;BME280;26823;42.662;23.352;2022-07-04T08:55:56;95000.84;;;27.70;40.00
41078;BME280;26823;42.662;23.352;2022-07-04T08:58:42;94993.28;;;27.63;40.76
41078;BME280;26823;42.662;23.352;2022-07-04T09:01:10;94997.75;;;27.79;41.50
41078;BME280;26823;42.662;23.352;2022-07-04T09:03:43;94989.53;;;27.93;40.73
41078;BME280;26823;42.662;23.352;2022-07-04T09:06:10;94987.16;;;27.99;40.68
41078;BME280;26823;42.662;23.352;2022-07-04T09:08:37;94987.16;;;27.99;41.20
41078;BME280;26823;42.662;23.352;2022-07-04T09:11:03;94986.75;;;27.97;41.13
41078;BME280;26823;42.662;23.352;2022-07-04T09:13:31;94991.09;;;27.91;40.65
41078;BME280;26823;42.662;23.352;2022-07-04T09:15:57;94997.72;;;27.72;40.88
41078;BME280;26823;42.662;23.352;2022-07-04T09:18:33;95004.31;;;28.05;40.04
41078;BME280;26823;42.662;23.352;2022-07-04T09:21:02;94986.88;;;28.11;39.52
41078;BME280;26823;42.662;23.352;2022-07-04T09:23:35;94981.56;;;27.95;40.27
41078;BME280;26823;42.662;23.352;2022-07-04T09:26:21;94987.53;;;27.94;40.65
41078;BME280;26823;42.662;23.352;2022-07-04T09:31:25;94995.34;;;28.37;38.65
41078;BME280;26823;42.662;23.352;2022-07-04T09:33:55;94994.00;;;28.09;39.39
41078;BME280;26823;42.662;23.352;2022-07-04T09:36:23;94985.81;;;28.34;39.62
41078;BME280;26823;42.662;23.352;2022-07-04T09:39:13;94975.25;;;28.72;40.23
41078;BME280;26823;42.662;23.352;2022-07-04T09:42:00;94963.78;;;28.85;37.29
41078;BME280;26823;42.662;23.352;2022-07-04T09:44:43;94973.72;;;28.82;37.73
41078;BME280;26823;42.662;23.352;2022-07-04T09:47:39;94968.84;;;28.61;37.20
41078;BME280;26823;42.662;23.352;2022-07-04T09:50:09;94977.66;;;28.74;38.22
41078;BME280;26823;42.662;23.352;2022-07-04T09:52:53;94962.56;;;28.78;38.40
41078;BME280;26823;42.662;23.352;2022-07-04T09:55:35;94972.53;;;28.94;37.85
41078;BME280;26823;42.662;23.352;2022-07-04T09:58:12;94967.69;;;28.73;38.37
41078;BME280;26823;42.662;23.352;2022-07-04T10:00:42;94966.13;;;28.75;38.33
41078;BME280;26823;42.662;23.352;2022-07-04T10:03:35;94945.50;;;29.02;38.98
41078;BME280;26823;42.662;23.352;2022-07-04T10:06:09;94970.56;;;29.05;38.00
41078;BME280;26823;42.662;23.352;2022-07-04T10:08:36;94971.38;;;28.99;39.16
41078;BME280;26823;42.662;23.352;2022-07-04T10:11:03;94956.63;;;28.94;38.65
41078;BME280;26823;42.662;23.352;2022-07-04T10:13:29;94965.84;;;29.24;37.93
41078;BME280;26823;42.662;23.352;2022-07-04T10:15:55;94969.41;;;29.21;37.92
41078;BME280;26823;42.662;23.352;2022-07-04T10:18:22;94965.84;;;29.24;37.50
41078;BME280;26823;42.662;23.352;2022-07-04T10:20:49;94968.59;;;29.17;36.85
41078;BME280;26823;42.662;23.352;2022-07-04T10:23:16;94959.84;;;29.22;37.03
41078;BME280;26823;42.662;23.352;2022-07-04T10:25:42;94953.94;;;29.38;36.70
41078;BME280;26823;42.662;23.352;2022-07-04T10:28:08;94957.94;;;29.44;38.17
41078;BME280;26823;42.662;23.352;2022-07-04T10:30:37;94956.31;;;29.54;38.62
41078;BME280;26823;42.662;23.352;2022-07-04T10:33:05;94949.56;;;29.40;38.29
41078;BME280;26823;42.662;23.352;2022-07-04T10:35:55;94953.94;;;29.63;38.56
41078;BME280;26823;42.662;23.352;2022-07-04T10:38:26;94941.56;;;29.68;37.72
41078;BME280;26823;42.662;23.352;2022-07-04T10:40:53;94955.09;;;29.76;37.49
41078;BME280;26823;42.662;23.352;2022-07-04T10:43:50;94939.59;;;29.65;37.73
41078;BME280;26823;42.662;23.352;2022-07-04T10:56:39;94944.38;;;29.32;37.31
41078;BME280;26823;42.662;23.352;2022-07-04T10:59:12;94933.59;;;29.23;37.31
41078;BME280;26823;42.662;23.352;2022-07-04T11:01:38;94922.84;;;28.96;37.62
41078;BME280;26823;42.662;23.352;2022-07-04T11:04:04;94940.78;;;29.31;37.62
41078;BME280;26823;42.662;23.352;2022-07-04T11:16:57;94910.50;;;29.76;37.85
41078;BME280;26823;42.662;23.352;2022-07-04T11:19:23;94918.09;;;29.65;37.67
41078;BME280;26823;42.662;23.352;2022-07-04T11:21:48;94897.81;;;29.65;37.31
41078;BME280;26823;42.662;23.352;2022-07-04T11:24:14;94915.72;;;29.56;37.02
41078;BME280;26823;42.662;23.352;2022-07-04T11:26:39;94910.16;;;29.60;37.51
41078;BME280;26823;42.662;23.352;2022-07-04T11:29:05;94917.31;;;29.72;37.01
41078;BME280;26823;42.662;23.352;2022-07-04T11:31:38;94925.25;;;29.77;36.81
41078;BME280;26823;42.662;23.352;2022-07-04T11:34:04;94859.66;;;29.29;36.89
41078;BME280;26823;42.662;23.352;2022-07-04T11:36:30;94891.81;;;29.66;37.59
41078;BME280;26823;42.662;23.352;2022-07-04T11:39:00;94869.91;;;29.79;36.70
41078;BME280;26823;42.662;23.352;2022-07-04T11:44:16;94913.19;;;30.27;37.07
41078;BME280;26823;42.662;23.352;2022-07-04T11:47:02;94907.97;;;30.40;37.23
41078;BME280;26823;42.662;23.352;2022-07-04T11:49:28;94899.75;;;30.04;37.36
41078;BME280;26823;42.662;23.352;2022-07-04T11:51:53;94896.53;;;30.05;37.36
41078;BME280;26823;42.662;23.352;2022-07-04T11:54:21;94881.06;;;29.79;36.60
41078;BME280;26823;42.662;23.352;2022-07-04T11:56:46;94882.59;;;30.13;37.03
41078;BME280;26823;42.662;23.352;2022-07-04T11:59:16;94865.91;;;29.94;36.42
41078;BME280;26823;42.662;23.352;2022-07-04T12:01:42;94880.63;;;29.88;37.92
41078;BME280;26823;42.662;23.352;2022-07-04T12:04:18;94868.31;;;29.92;37.32
41078;BME280;26823;42.662;23.352;2022-07-04T12:06:46;94879.47;;;29.96;37.40
41078;BME280;26823;42.662;23.352;2022-07-04T12:09:13;94877.44;;;29.97;37.06
41078;BME280;26823;42.662;23.352;2022-07-04T12:11:58;94867.03;;;30.19;36.85
41078;BME280;26823;42.662;23.352;2022-07-04T12:14:26;94868.31;;;29.78;38.30
41078;BME280;26823;42.662;23.352;2022-07-04T12:17:15;94865.50;;;29.85;37.58
41078;BME280;26823;42.662;23.352;2022-07-04T12:19:51;94862.31;;;29.94;37.89
41078;BME280;26823;42.662;23.352;2022-07-04T12:22:29;94864.72;;;29.92;37.85
41078;BME280;26823;42.662;23.352;2022-07-04T12:24:56;94853.16;;;29.83;38.51
41078;BME280;26823;42.662;23.352;2022-07-04T12:27:24;94859.16;;;29.70;38.80
41078;BME280;26823;42.662;23.352;2022-07-04T12:29:51;94856.78;;;29.72;38.21
41078;BME280;26823;42.662;23.352;2022-07-04T12:32:17;94832.06;;;29.82;39.06
41078;BME280;26823;42.662;23.352;2022-07-04T12:34:43;94851.56;;;29.85;39.23
41078;BME280;26823;42.662;23.352;2022-07-04T12:37:11;94835.66;;;29.82;39.74
41078;BME280;26823;42.662;23.352;2022-07-04T12:39:39;94836.09;;;29.77;39.36
41078;BME280;26823;42.662;23.352;2022-07-04T12:44:32;94846.09;;;29.38;38.60
41078;BME280;26823;42.662;23.352;2022-07-04T12:46:58;94858.03;;;29.46;38.31
41078;BME280;26823;42.662;23.352;2022-07-04T12:49:23;94853.59;;;29.70;39.26
41078;BME280;26823;42.662;23.352;2022-07-04T12:51:49;94843.63;;;29.76;38.12
41078;BME280;26823;42.662;23.352;2022-07-04T12:54:15;94840.84;;;29.84;39.40
41078;BME280;26823;42.662;23.352;2022-07-04T12:56:42;94844.00;;;29.93;39.62
41078;BME280;26823;42.662;23.352;2022-07-04T12:59:18;94840.06;;;29.69;39.34
41078;BME280;26823;42.662;23.352;2022-07-04T13:01:44;94850.84;;;29.63;39.88
41078;BME280;26823;42.662;23.352;2022-07-04T13:04:11;94849.66;;;29.57;40.08
41078;BME280;26823;42.662;23.352;2022-07-04T13:06:37;94832.16;;;29.49;39.01
41078;BME280;26823;42.662;23.352;2022-07-04T13:09:04;94841.69;;;29.63;39.29
41078;BME280;26823;42.662;23.352;2022-07-04T13:11:33;94834.50;;;29.65;39.49
41078;BME280;26823;42.662;23.352;2022-07-04T13:14:18;94818.94;;;29.82;40.45
41078;BME280;26823;42.662;23.352;2022-07-04T13:16:43;94818.94;;;29.86;39.66
41078;BME280;26823;42.662;23.352;2022-07-04T13:19:09;94816.13;;;29.97;39.36
41078;BME280;26823;42.662;23.352;2022-07-04T13:21:35;94792.69;;;29.76;39.32